sensor_id;sensor_type;location;lat;lon;timestamp;P1;durP1;ratioP1;P2;durP2;ratioP2
4365;SDS011;2196;47.422;9.656;2022-12-18T00:00:47;45.90;;;23.73;;
4365;SDS011;2196;47.422;9.656;2022-12-18T00:03:14;48.13;;;21.77;;
4365;SDS011;2196;47.422;9.656;2022-12-18T00:05:47;45.90;;;24.03;;
4365;SDS011;2196;47.422;9.656;2022-12-18T00:08:14;47.83;;;25.10;;
4365;SDS011;2196;47.422;9.656;2022-12-18T00:10:42;47.57;;;23.40;;
4365;SDS011;2196;47.422;9.656;2022-12-18T00:13:10;48.30;;;24.13;;
4365;SDS011;2196;47.422;9.656;2022-12-18T00:15:39;53.57;;;27.00;;
4365;SDS011;2196;47.422;9.656;2022-12-18T00:18:06;52.80;;;23.70;;
4365;SDS011;2196;47.422;9.656;2022-12-18T00:20:35;51.93;;;25.10;;
4365;SDS011;2196;47.422;9.656;2022-12-18T00:23:03;57.23;;;27.37;;
4365;SDS011;2196;47.422;9.656;2022-12-18T00:25:32;52.10;;;24.30;;
4365;SDS011;2196;47.422;9.656;2022-12-18T00:27:59;48.53;;;25.30;;
4365;SDS011;2196;47.422;9.656;2022-12-18T00:30:26;48.73;;;24.77;;
4365;SDS011;2196;47.422;9.656;2022-12-18T00:32:55;50.30;;;24.97;;
4365;SDS011;2196;47.422;9.656;2022-12-18T00:35:22;49.03;;;23.43;;
4365;SDS011;2196;47.422;9.656;2022-12-18T00:37:49;41.00;;;24.13;;
4365;SDS011;2196;47.422;9.656;2022-12-18T00:40:16;57.67;;;25.87;;
4365;SDS011;2196;47.422;9.656;2022-12-18T00:42:43;51.20;;;25.77;;
4365;SDS011;2196;47.422;9.656;2022-12-18T00:45:21;54.10;;;26.87;;
4365;SDS011;2196;47.422;9.656;2022-12-18T00:47:48;52.03;;;26.10;;
4365;SDS011;2196;47.422;9.656;2022-12-18T00:50:17;53.43;;;23.90;;
4365;SDS011;2196;47.422;9.656;2022-12-18T00:52:44;47.27;;;24.07;;
4365;SDS011;2196;47.422;9.656;2022-12-18T00:55:11;55.83;;;26.00;;
4365;SDS011;2196;47.422;9.656;2022-12-18T00:57:39;45.20;;;23.97;;
4365;SDS011;2196;47.422;9.656;2022-12-18T01:00:07;55.90;;;24.33;;
4365;SDS011;2196;47.422;9.656;2022-12-18T01:02:35;44.10;;;22.00;;
4365;SDS011;2196;47.422;9.656;2022-12-18T01:05:02;45.77;;;24.73;;
4365;SDS011;2196;47.422;9.656;2022-12-18T01:07:31;47.90;;;24.97;;
4365;SDS011;2196;47.422;9.656;2022-12-18T01:09:58;47.70;;;22.67;;
4365;SDS011;2196;47.422;9.656;2022-12-18T01:12:25;43.97;;;21.67;;
4365;SDS011;2196;47.422;9.656;2022-12-18T01:14:52;57.70;;;23.73;;
4365;SDS011;2196;47.422;9.656;2022-12-18T01:17:19;49.63;;;24.53;;
4365;SDS011;2196;47.422;9.656;2022-12-18T01:19:46;51.60;;;25.50;;
4365;SDS011;2196;47.422;9.656;2022-12-18T01:22:13;58.27;;;29.23;;
4365;SDS011;2196;47.422;9.656;2022-12-18T01:24:41;48.60;;;24.10;;
4365;SDS011;2196;47.422;9.656;2022-12-18T01:27:08;58.63;;;26.43;;
4365;SDS011;2196;47.422;9.656;2022-12-18T01:29:35;53.70;;;25.53;;
4365;SDS011;2196;47.422;9.656;2022-12-18T01:32:02;63.73;;;27.63;;
4365;SDS011;2196;47.422;9.656;2022-12-18T01:34:30;57.30;;;26.73;;
4365;SDS011;2196;47.422;9.656;2022-12-18T01:36:57;62.17;;;28.13;;
4365;SDS011;2196;47.422;9.656;2022-12-18T01:39:24;56.23;;;24.73;;
4365;SDS011;2196;47.422;9.656;2022-12-18T01:41:54;66.10;;;28.30;;
4365;SDS011;2196;47.422;9.656;2022-12-18T01:47:25;59.37;;;24.53;;
4365;SDS011;2196;47.422;9.656;2022-12-18T01:49:55;51.57;;;24.73;;
4365;SDS011;2196;47.422;9.656;2022-12-18T01:52:23;51.90;;;22.50;;
4365;SDS011;2196;47.422;9.656;2022-12-18T01:54:51;64.93;;;27.77;;
4365;SDS011;2196;47.422;9.656;2022-12-18T01:57:22;63.00;;;24.83;;
4365;SDS011;2196;47.422;9.656;2022-12-18T01:59:51;50.63;;;24.43;;
4365;SDS011;2196;47.422;9.656;2022-12-18T02:02:21;65.03;;;27.10;;
4365;SDS011;2196;47.422;9.656;2022-12-18T02:04:48;59.73;;;27.73;;
4365;SDS011;2196;47.422;9.656;2022-12-18T02:07:17;54.07;;;25.63;;
4365;SDS011;2196;47.422;9.656;2022-12-18T02:09:50;57.23;;;27.00;;
4365;SDS011;2196;47.422;9.656;2022-12-18T02:12:26;67.00;;;27.30;;
4365;SDS011;2196;47.422;9.656;2022-12-18T02:14:58;58.30;;;26.00;;
4365;SDS011;2196;47.422;9.656;2022-12-18T02:17:33;57.50;;;24.93;;
4365;SDS011;2196;47.422;9.656;2022-12-18T02:20:06;58.10;;;25.47;;
4365;SDS011;2196;47.422;9.656;2022-12-18T02:22:42;72.27;;;30.13;;
4365;SDS011;2196;47.422;9.656;2022-12-18T02:25:20;60.07;;;26.77;;
4365;SDS011;2196;47.422;9.656;2022-12-18T02:28:00;53.43;;;24.80;;
4365;SDS011;2196;47.422;9.656;2022-12-18T02:30:30;59.03;;;25.20;;
4365;SDS011;2196;47.422;9.656;2022-12-18T02:33:00;55.70;;;24.43;;
4365;SDS011;2196;47.422;9.656;2022-12-18T02:35:29;54.60;;;25.73;;
4365;SDS011;2196;47.422;9.656;2022-12-18T02:37:57;53.87;;;23.47;;
4365;SDS011;2196;47.422;9.656;2022-12-18T02:40:25;50.03;;;23.83;;
4365;SDS011;2196;47.422;9.656;2022-12-18T02:42:54;40.97;;;20.67;;
4365;SDS011;2196;47.422;9.656;2022-12-18T02:45:22;46.30;;;23.93;;
4365;SDS011;2196;47.422;9.656;2022-12-18T02:47:49;51.03;;;23.40;;
4365;SDS011;2196;47.422;9.656;2022-12-18T02:50:19;52.77;;;24.43;;
4365;SDS011;2196;47.422;9.656;2022-12-18T02:53:01;46.53;;;23.27;;
4365;SDS011;2196;47.422;9.656;2022-12-18T02:55:39;48.23;;;22.97;;
4365;SDS011;2196;47.422;9.656;2022-12-18T02:58:18;51.60;;;23.43;;
4365;SDS011;2196;47.422;9.656;2022-12-18T03:00:55;47.33;;;23.10;;
4365;SDS011;2196;47.422;9.656;2022-12-18T03:03:26;48.97;;;23.43;;
4365;SDS011;2196;47.422;9.656;2022-12-18T03:05:58;54.47;;;24.37;;
4365;SDS011;2196;47.422;9.656;2022-12-18T03:08:31;46.63;;;24.23;;
4365;SDS011;2196;47.422;9.656;2022-12-18T03:11:03;63.77;;;25.97;;
4365;SDS011;2196;47.422;9.656;2022-12-18T03:13:33;56.30;;;24.13;;
4365;SDS011;2196;47.422;9.656;2022-12-18T03:16:05;47.10;;;23.07;;
4365;SDS011;2196;47.422;9.656;2022-12-18T03:18:42;48.63;;;23.13;;
4365;SDS011;2196;47.422;9.656;2022-12-18T03:21:12;48.33;;;24.70;;
4365;SDS011;2196;47.422;9.656;2022-12-18T03:23:44;50.00;;;24.03;;
4365;SDS011;2196;47.422;9.656;2022-12-18T03:26:15;52.77;;;23.63;;
4365;SDS011;2196;47.422;9.656;2022-12-18T03:28:46;64.77;;;27.43;;
4365;SDS011;2196;47.422;9.656;2022-12-18T03:31:18;46.90;;;22.90;;
4365;SDS011;2196;47.422;9.656;2022-12-18T03:33:51;52.37;;;23.23;;
4365;SDS011;2196;47.422;9.656;2022-12-18T03:36:19;53.87;;;23.90;;
4365;SDS011;2196;47.422;9.656;2022-12-18T03:38:46;53.20;;;24.07;;
4365;SDS011;2196;47.422;9.656;2022-12-18T03:41:15;43.97;;;20.87;;
4365;SDS011;2196;47.422;9.656;2022-12-18T03:43:48;56.23;;;23.93;;
4365;SDS011;2196;47.422;9.656;2022-12-18T03:46:23;47.23;;;23.00;;
4365;SDS011;2196;47.422;9.656;2022-12-18T03:48:56;43.30;;;21.10;;
4365;SDS011;2196;47.422;9.656;2022-12-18T03:51:28;47.57;;;22.60;;
4365;SDS011;2196;47.422;9.656;2022-12-18T03:54:03;44.27;;;22.40;;
4365;SDS011;2196;47.422;9.656;2022-12-18T03:56:33;42.90;;;20.40;;
4365;SDS011;2196;47.422;9.656;2022-12-18T03:59:04;45.33;;;22.23;;
4365;SDS011;2196;47.422;9.656;2022-12-18T04:01:35;40.73;;;20.63;;
4365;SDS011;2196;47.422;9.656;2022-12-18T04:04:05;35.97;;;18.60;;
4365;SDS011;2196;47.422;9.656;2022-12-18T04:06:34;39.97;;;18.90;;
4365;SDS011;2196;47.422;9.656;2022-12-18T04:09:02;42.13;;;19.67;;
4365;SDS011;2196;47.422;9.656;2022-12-18T04:11:30;45.13;;;19.10;;
4365;SDS011;2196;47.422;9.656;2022-12-18T04:13:57;38.57;;;18.93;;
4365;SDS011;2196;47.422;9.656;2022-12-18T04:16:24;30.60;;;16.47;;
4365;SDS011;2196;47.422;9.656;2022-12-18T04:18:53;34.40;;;16.07;;
4365;SDS011;2196;47.422;9.656;2022-12-18T04:21:20;31.30;;;16.07;;
4365;SDS011;2196;47.422;9.656;2022-12-18T04:23:47;27.00;;;12.83;;
4365;SDS011;2196;47.422;9.656;2022-12-18T04:26:14;26.37;;;14.03;;
4365;SDS011;2196;47.422;9.656;2022-12-18T04:28:41;33.33;;;14.30;;
4365;SDS011;2196;47.422;9.656;2022-12-18T04:31:08;24.93;;;13.23;;
4365;SDS011;2196;47.422;9.656;2022-12-18T04:33:35;20.73;;;12.33;;
4365;SDS011;2196;47.422;9.656;2022-12-18T04:36:04;22.47;;;9.90;;
4365;SDS011;2196;47.422;9.656;2022-12-18T04:38:31;26.97;;;13.50;;
4365;SDS011;2196;47.422;9.656;2022-12-18T04:40:58;25.20;;;13.20;;
4365;SDS011;2196;47.422;9.656;2022-12-18T04:43:25;22.73;;;11.90;;
4365;SDS011;2196;47.422;9.656;2022-12-18T04:45:52;28.77;;;14.33;;
4365;SDS011;2196;47.422;9.656;2022-12-18T04:48:20;24.57;;;13.63;;
4365;SDS011;2196;47.422;9.656;2022-12-18T04:50:47;29.47;;;13.90;;
4365;SDS011;2196;47.422;9.656;2022-12-18T04:53:15;32.17;;;14.83;;
4365;SDS011;2196;47.422;9.656;2022-12-18T04:55:42;33.53;;;15.63;;
4365;SDS011;2196;47.422;9.656;2022-12-18T04:58:09;27.93;;;15.13;;
4365;SDS011;2196;47.422;9.656;2022-12-18T05:00:36;30.80;;;15.20;;
4365;SDS011;2196;47.422;9.656;2022-12-18T05:03:03;25.17;;;14.17;;
4365;SDS011;2196;47.422;9.656;2022-12-18T05:05:30;28.37;;;14.13;;
4365;SDS011;2196;47.422;9.656;2022-12-18T05:07:57;31.20;;;16.97;;
4365;SDS011;2196;47.422;9.656;2022-12-18T05:10:26;34.30;;;16.90;;
4365;SDS011;2196;47.422;9.656;2022-12-18T05:12:53;29.30;;;14.23;;
4365;SDS011;2196;47.422;9.656;2022-12-18T05:15:26;33.03;;;15.43;;
4365;SDS011;2196;47.422;9.656;2022-12-18T05:17:54;32.60;;;14.23;;
4365;SDS011;2196;47.422;9.656;2022-12-18T05:20:22;34.90;;;14.77;;
4365;SDS011;2196;47.422;9.656;2022-12-18T05:22:49;33.97;;;15.33;;
4365;SDS011;2196;47.422;9.656;2022-12-18T05:25:17;31.07;;;13.83;;
4365;SDS011;2196;47.422;9.656;2022-12-18T05:27:45;27.70;;;14.27;;
4365;SDS011;2196;47.422;9.656;2022-12-18T05:30:13;30.33;;;14.07;;
4365;SDS011;2196;47.422;9.656;2022-12-18T05:32:40;32.50;;;15.27;;
4365;SDS011;2196;47.422;9.656;2022-12-18T05:35:09;31.97;;;14.90;;
4365;SDS011;2196;47.422;9.656;2022-12-18T05:37:36;30.40;;;16.63;;
4365;SDS011;2196;47.422;9.656;2022-12-18T05:40:04;32.87;;;15.23;;
4365;SDS011;2196;47.422;9.656;2022-12-18T05:42:32;32.23;;;15.17;;
4365;SDS011;2196;47.422;9.656;2022-12-18T05:45:00;37.90;;;15.83;;
4365;SDS011;2196;47.422;9.656;2022-12-18T05:47:27;30.57;;;15.03;;
4365;SDS011;2196;47.422;9.656;2022-12-18T05:49:54;34.97;;;17.57;;
4365;SDS011;2196;47.422;9.656;2022-12-18T05:52:21;45.80;;;18.30;;
4365;SDS011;2196;47.422;9.656;2022-12-18T05:54:48;39.40;;;17.40;;
4365;SDS011;2196;47.422;9.656;2022-12-18T05:57:15;44.00;;;19.47;;
4365;SDS011;2196;47.422;9.656;2022-12-18T05:59:42;45.57;;;18.57;;
4365;SDS011;2196;47.422;9.656;2022-12-18T06:02:11;42.57;;;16.97;;
4365;SDS011;2196;47.422;9.656;2022-12-18T06:04:38;40.53;;;17.60;;
4365;SDS011;2196;47.422;9.656;2022-12-18T06:07:05;39.23;;;20.30;;
4365;SDS011;2196;47.422;9.656;2022-12-18T06:09:32;33.43;;;15.80;;
4365;SDS011;2196;47.422;9.656;2022-12-18T06:11:59;42.17;;;19.13;;
4365;SDS011;2196;47.422;9.656;2022-12-18T06:14:26;44.30;;;17.10;;
4365;SDS011;2196;47.422;9.656;2022-12-18T06:16:53;44.37;;;18.77;;
4365;SDS011;2196;47.422;9.656;2022-12-18T06:19:21;40.80;;;18.37;;
4365;SDS011;2196;47.422;9.656;2022-12-18T06:21:48;45.97;;;20.60;;
4365;SDS011;2196;47.422;9.656;2022-12-18T06:24:18;46.97;;;18.17;;
4365;SDS011;2196;47.422;9.656;2022-12-18T06:26:45;49.17;;;20.07;;
4365;SDS011;2196;47.422;9.656;2022-12-18T06:29:12;51.33;;;21.37;;
4365;SDS011;2196;47.422;9.656;2022-12-18T06:31:39;38.10;;;17.87;;
4365;SDS011;2196;47.422;9.656;2022-12-18T06:34:06;41.83;;;18.00;;
4365;SDS011;2196;47.422;9.656;2022-12-18T06:36:35;43.57;;;18.60;;
4365;SDS011;2196;47.422;9.656;2022-12-18T06:39:02;49.93;;;22.83;;
4365;SDS011;2196;47.422;9.656;2022-12-18T06:41:29;48.83;;;22.50;;
4365;SDS011;2196;47.422;9.656;2022-12-18T06:43:57;40.53;;;18.90;;
4365;SDS011;2196;47.422;9.656;2022-12-18T06:46:24;44.67;;;17.77;;
4365;SDS011;2196;47.422;9.656;2022-12-18T06:48:51;40.83;;;18.00;;
4365;SDS011;2196;47.422;9.656;2022-12-18T06:51:19;36.70;;;18.03;;
4365;SDS011;2196;47.422;9.656;2022-12-18T06:53:48;42.30;;;17.93;;
4365;SDS011;2196;47.422;9.656;2022-12-18T06:56:16;34.83;;;18.00;;
4365;SDS011;2196;47.422;9.656;2022-12-18T06:58:43;37.03;;;17.60;;
4365;SDS011;2196;47.422;9.656;2022-12-18T07:01:10;37.20;;;15.97;;
4365;SDS011;2196;47.422;9.656;2022-12-18T07:03:38;37.23;;;20.00;;
4365;SDS011;2196;47.422;9.656;2022-12-18T07:06:06;44.10;;;20.00;;
4365;SDS011;2196;47.422;9.656;2022-12-18T07:08:39;43.60;;;19.40;;
4365;SDS011;2196;47.422;9.656;2022-12-18T07:11:07;43.17;;;19.17;;
4365;SDS011;2196;47.422;9.656;2022-12-18T07:13:34;42.70;;;18.33;;
4365;SDS011;2196;47.422;9.656;2022-12-18T07:16:05;35.67;;;17.40;;
4365;SDS011;2196;47.422;9.656;2022-12-18T07:18:33;42.73;;;18.47;;
4365;SDS011;2196;47.422;9.656;2022-12-18T07:21:02;32.00;;;15.60;;
4365;SDS011;2196;47.422;9.656;2022-12-18T07:23:31;40.27;;;17.47;;
4365;SDS011;2196;47.422;9.656;2022-12-18T07:26:00;38.27;;;17.57;;
4365;SDS011;2196;47.422;9.656;2022-12-18T07:28:30;42.70;;;20.73;;
4365;SDS011;2196;47.422;9.656;2022-12-18T07:30:57;55.37;;;23.67;;
4365;SDS011;2196;47.422;9.656;2022-12-18T07:33:25;42.07;;;19.37;;
4365;SDS011;2196;47.422;9.656;2022-12-18T07:35:52;41.53;;;19.17;;
4365;SDS011;2196;47.422;9.656;2022-12-18T07:38:19;37.57;;;18.47;;
4365;SDS011;2196;47.422;9.656;2022-12-18T07:40:46;36.57;;;18.10;;
4365;SDS011;2196;47.422;9.656;2022-12-18T07:43:13;40.37;;;19.17;;
4365;SDS011;2196;47.422;9.656;2022-12-18T07:45:42;33.53;;;18.47;;
4365;SDS011;2196;47.422;9.656;2022-12-18T07:48:09;40.00;;;18.37;;
4365;SDS011;2196;47.422;9.656;2022-12-18T07:50:36;35.17;;;17.93;;
4365;SDS011;2196;47.422;9.656;2022-12-18T07:53:04;36.40;;;19.13;;
4365;SDS011;2196;47.422;9.656;2022-12-18T07:55:31;37.67;;;17.17;;
4365;SDS011;2196;47.422;9.656;2022-12-18T07:58:00;41.93;;;18.90;;
4365;SDS011;2196;47.422;9.656;2022-12-18T08:00:28;42.43;;;18.87;;
4365;SDS011;2196;47.422;9.656;2022-12-18T08:02:56;43.77;;;19.23;;
4365;SDS011;2196;47.422;9.656;2022-12-18T08:05:24;36.37;;;19.20;;
4365;SDS011;2196;47.422;9.656;2022-12-18T08:07:51;34.47;;;19.30;;
4365;SDS011;2196;47.422;9.656;2022-12-18T08:10:18;33.67;;;17.03;;
4365;SDS011;2196;47.422;9.656;2022-12-18T08:12:45;38.97;;;18.37;;
4365;SDS011;2196;47.422;9.656;2022-12-18T08:15:15;33.43;;;17.23;;
4365;SDS011;2196;47.422;9.656;2022-12-18T08:17:42;31.20;;;16.83;;
4365;SDS011;2196;47.422;9.656;2022-12-18T08:20:11;27.97;;;13.63;;
4365;SDS011;2196;47.422;9.656;2022-12-18T08:22:39;33.27;;;17.10;;
4365;SDS011;2196;47.422;9.656;2022-12-18T08:25:07;37.20;;;17.13;;
4365;SDS011;2196;47.422;9.656;2022-12-18T08:27:34;31.87;;;15.33;;
4365;SDS011;2196;47.422;9.656;2022-12-18T08:30:02;26.00;;;14.37;;
4365;SDS011;2196;47.422;9.656;2022-12-18T08:32:30;27.57;;;13.70;;
4365;SDS011;2196;47.422;9.656;2022-12-18T08:34:57;26.40;;;13.30;;
4365;SDS011;2196;47.422;9.656;2022-12-18T08:37:26;28.80;;;14.07;;
4365;SDS011;2196;47.422;9.656;2022-12-18T08:39:53;36.17;;;15.77;;
4365;SDS011;2196;47.422;9.656;2022-12-18T08:42:20;30.27;;;13.27;;
4365;SDS011;2196;47.422;9.656;2022-12-18T08:45:05;33.77;;;15.70;;
4365;SDS011;2196;47.422;9.656;2022-12-18T08:47:32;29.73;;;14.87;;
4365;SDS011;2196;47.422;9.656;2022-12-18T08:50:00;34.87;;;16.33;;
4365;SDS011;2196;47.422;9.656;2022-12-18T08:52:28;33.10;;;14.07;;
4365;SDS011;2196;47.422;9.656;2022-12-18T08:54:57;27.77;;;15.07;;
4365;SDS011;2196;47.422;9.656;2022-12-18T08:57:24;29.60;;;15.77;;
4365;SDS011;2196;47.422;9.656;2022-12-18T08:59:51;30.33;;;14.40;;
4365;SDS011;2196;47.422;9.656;2022-12-18T09:02:18;28.03;;;13.23;;
4365;SDS011;2196;47.422;9.656;2022-12-18T09:04:46;31.50;;;14.17;;
4365;SDS011;2196;47.422;9.656;2022-12-18T09:07:13;28.00;;;13.67;;
4365;SDS011;2196;47.422;9.656;2022-12-18T09:09:42;25.30;;;13.43;;
4365;SDS011;2196;47.422;9.656;2022-12-18T09:12:09;26.43;;;14.40;;
4365;SDS011;2196;47.422;9.656;2022-12-18T09:14:36;30.03;;;13.87;;
4365;SDS011;2196;47.422;9.656;2022-12-18T09:17:03;28.33;;;14.77;;
4365;SDS011;2196;47.422;9.656;2022-12-18T09:19:30;26.53;;;13.90;;
4365;SDS011;2196;47.422;9.656;2022-12-18T09:21:57;30.43;;;14.67;;
4365;SDS011;2196;47.422;9.656;2022-12-18T09:24:24;32.80;;;16.23;;
4365;SDS011;2196;47.422;9.656;2022-12-18T09:26:54;27.00;;;13.43;;
4365;SDS011;2196;47.422;9.656;2022-12-18T09:29:21;31.63;;;14.23;;
4365;SDS011;2196;47.422;9.656;2022-12-18T09:31:51;31.80;;;14.13;;
4365;SDS011;2196;47.422;9.656;2022-12-18T09:34:19;32.50;;;14.17;;
4365;SDS011;2196;47.422;9.656;2022-12-18T09:36:50;30.37;;;14.47;;
4365;SDS011;2196;47.422;9.656;2022-12-18T09:39:17;29.50;;;16.20;;
4365;SDS011;2196;47.422;9.656;2022-12-18T09:41:45;25.53;;;13.73;;
4365;SDS011;2196;47.422;9.656;2022-12-18T09:44:20;31.77;;;15.23;;
4365;SDS011;2196;47.422;9.656;2022-12-18T09:47:04;25.60;;;13.90;;
4365;SDS011;2196;47.422;9.656;2022-12-18T09:49:35;31.07;;;15.33;;
4365;SDS011;2196;47.422;9.656;2022-12-18T09:52:08;30.80;;;15.27;;
4365;SDS011;2196;47.422;9.656;2022-12-18T09:54:39;29.17;;;13.23;;
4365;SDS011;2196;47.422;9.656;2022-12-18T09:57:10;33.97;;;14.13;;
4365;SDS011;2196;47.422;9.656;2022-12-18T09:59:42;22.73;;;13.53;;
4365;SDS011;2196;47.422;9.656;2022-12-18T10:02:15;27.90;;;13.83;;
4365;SDS011;2196;47.422;9.656;2022-12-18T10:04:44;20.50;;;12.07;;
4365;SDS011;2196;47.422;9.656;2022-12-18T10:07:21;30.70;;;14.07;;
4365;SDS011;2196;47.422;9.656;2022-12-18T10:09:56;29.83;;;13.17;;
4365;SDS011;2196;47.422;9.656;2022-12-18T10:12:32;27.53;;;13.07;;
4365;SDS011;2196;47.422;9.656;2022-12-18T10:15:10;33.70;;;13.93;;
4365;SDS011;2196;47.422;9.656;2022-12-18T10:17:45;32.07;;;13.70;;
4365;SDS011;2196;47.422;9.656;2022-12-18T10:20:17;28.90;;;13.60;;
4365;SDS011;2196;47.422;9.656;2022-12-18T10:22:53;27.70;;;12.77;;
4365;SDS011;2196;47.422;9.656;2022-12-18T10:25:25;22.97;;;12.57;;
4365;SDS011;2196;47.422;9.656;2022-12-18T10:27:58;29.40;;;13.07;;
4365;SDS011;2196;47.422;9.656;2022-12-18T10:30:37;31.17;;;14.60;;
4365;SDS011;2196;47.422;9.656;2022-12-18T10:33:05;32.83;;;13.40;;
4365;SDS011;2196;47.422;9.656;2022-12-18T10:35:37;27.40;;;15.13;;
4365;SDS011;2196;47.422;9.656;2022-12-18T10:38:19;30.50;;;15.17;;
4365;SDS011;2196;47.422;9.656;2022-12-18T10:40:49;31.87;;;15.33;;
4365;SDS011;2196;47.422;9.656;2022-12-18T10:43:20;32.13;;;15.43;;
4365;SDS011;2196;47.422;9.656;2022-12-18T10:46:00;34.83;;;16.73;;
4365;SDS011;2196;47.422;9.656;2022-12-18T10:48:48;30.63;;;15.40;;
4365;SDS011;2196;47.422;9.656;2022-12-18T10:51:19;31.17;;;15.47;;
4365;SDS011;2196;47.422;9.656;2022-12-18T10:53:51;35.70;;;16.37;;
4365;SDS011;2196;47.422;9.656;2022-12-18T10:56:21;31.70;;;15.97;;
4365;SDS011;2196;47.422;9.656;2022-12-18T10:58:55;41.60;;;18.53;;
4365;SDS011;2196;47.422;9.656;2022-12-18T11:01:25;37.20;;;16.97;;
4365;SDS011;2196;47.422;9.656;2022-12-18T11:04:00;35.40;;;15.67;;
4365;SDS011;2196;47.422;9.656;2022-12-18T11:06:34;33.97;;;16.57;;
4365;SDS011;2196;47.422;9.656;2022-12-18T11:09:23;37.27;;;16.60;;
4365;SDS011;2196;47.422;9.656;2022-12-18T11:11:52;33.07;;;15.10;;
4365;SDS011;2196;47.422;9.656;2022-12-18T11:14:21;30.03;;;16.33;;
4365;SDS011;2196;47.422;9.656;2022-12-18T11:16:53;37.90;;;17.60;;
4365;SDS011;2196;47.422;9.656;2022-12-18T11:19:25;37.43;;;18.10;;
4365;SDS011;2196;47.422;9.656;2022-12-18T11:21:57;31.47;;;16.07;;
4365;SDS011;2196;47.422;9.656;2022-12-18T11:24:26;42.17;;;19.07;;
4365;SDS011;2196;47.422;9.656;2022-12-18T11:26:56;39.83;;;17.23;;
4365;SDS011;2196;47.422;9.656;2022-12-18T11:29:33;43.07;;;18.13;;
4365;SDS011;2196;47.422;9.656;2022-12-18T11:32:18;40.43;;;18.03;;
4365;SDS011;2196;47.422;9.656;2022-12-18T11:34:55;38.33;;;17.97;;
4365;SDS011;2196;47.422;9.656;2022-12-18T11:37:28;44.10;;;20.27;;
4365;SDS011;2196;47.422;9.656;2022-12-18T11:39:58;37.40;;;17.77;;
4365;SDS011;2196;47.422;9.656;2022-12-18T11:42:32;41.63;;;19.17;;
4365;SDS011;2196;47.422;9.656;2022-12-18T11:47:54;38.87;;;16.07;;
4365;SDS011;2196;47.422;9.656;2022-12-18T11:50:25;33.30;;;16.67;;
4365;SDS011;2196;47.422;9.656;2022-12-18T11:52:55;37.67;;;16.33;;
4365;SDS011;2196;47.422;9.656;2022-12-18T11:55:25;38.33;;;16.70;;
4365;SDS011;2196;47.422;9.656;2022-12-18T11:58:03;36.90;;;16.57;;
4365;SDS011;2196;47.422;9.656;2022-12-18T12:00:39;36.13;;;16.83;;
4365;SDS011;2196;47.422;9.656;2022-12-18T12:03:35;39.50;;;19.17;;
4365;SDS011;2196;47.422;9.656;2022-12-18T12:06:23;39.30;;;18.23;;
4365;SDS011;2196;47.422;9.656;2022-12-18T12:09:01;40.03;;;17.93;;
4365;SDS011;2196;47.422;9.656;2022-12-18T12:11:39;38.97;;;17.73;;
4365;SDS011;2196;47.422;9.656;2022-12-18T12:14:23;38.43;;;17.07;;
4365;SDS011;2196;47.422;9.656;2022-12-18T12:17:02;37.30;;;17.73;;
4365;SDS011;2196;47.422;9.656;2022-12-18T12:19:39;32.17;;;16.27;;
4365;SDS011;2196;47.422;9.656;2022-12-18T12:22:16;33.33;;;15.83;;
4365;SDS011;2196;47.422;9.656;2022-12-18T12:24:53;43.53;;;18.03;;
4365;SDS011;2196;47.422;9.656;2022-12-18T12:27:30;33.93;;;15.27;;
4365;SDS011;2196;47.422;9.656;2022-12-18T12:30:06;35.87;;;15.30;;
4365;SDS011;2196;47.422;9.656;2022-12-18T12:32:38;34.97;;;16.93;;
4365;SDS011;2196;47.422;9.656;2022-12-18T12:35:21;39.37;;;18.23;;
4365;SDS011;2196;47.422;9.656;2022-12-18T12:38:01;35.67;;;16.87;;
4365;SDS011;2196;47.422;9.656;2022-12-18T12:40:37;32.67;;;15.90;;
4365;SDS011;2196;47.422;9.656;2022-12-18T12:43:11;37.33;;;18.10;;
4365;SDS011;2196;47.422;9.656;2022-12-18T12:45:49;32.03;;;16.80;;
4365;SDS011;2196;47.422;9.656;2022-12-18T12:48:22;35.83;;;18.00;;
4365;SDS011;2196;47.422;9.656;2022-12-18T12:50:59;37.43;;;17.77;;
4365;SDS011;2196;47.422;9.656;2022-12-18T12:53:30;35.93;;;18.47;;
4365;SDS011;2196;47.422;9.656;2022-12-18T12:56:02;40.33;;;18.73;;
4365;SDS011;2196;47.422;9.656;2022-12-18T12:58:32;41.77;;;19.10;;
4365;SDS011;2196;47.422;9.656;2022-12-18T13:01:08;43.90;;;19.93;;
4365;SDS011;2196;47.422;9.656;2022-12-18T13:03:43;45.97;;;21.23;;
4365;SDS011;2196;47.422;9.656;2022-12-18T13:06:23;44.87;;;20.00;;
4365;SDS011;2196;47.422;9.656;2022-12-18T13:09:07;37.83;;;17.27;;
4365;SDS011;2196;47.422;9.656;2022-12-18T13:11:35;36.50;;;19.67;;
4365;SDS011;2196;47.422;9.656;2022-12-18T13:14:23;37.17;;;18.70;;
4365;SDS011;2196;47.422;9.656;2022-12-18T13:20:06;36.03;;;17.23;;
4365;SDS011;2196;47.422;9.656;2022-12-18T13:22:38;32.93;;;19.40;;
4365;SDS011;2196;47.422;9.656;2022-12-18T13:28:02;35.87;;;18.03;;
4365;SDS011;2196;47.422;9.656;2022-12-18T13:30:50;35.30;;;17.33;;
4365;SDS011;2196;47.422;9.656;2022-12-18T13:36:12;37.83;;;18.20;;
4365;SDS011;2196;47.422;9.656;2022-12-18T13:41:53;39.97;;;19.60;;
4365;SDS011;2196;47.422;9.656;2022-12-18T13:45:03;30.93;;;15.40;;
4365;SDS011;2196;47.422;9.656;2022-12-18T13:48:22;32.10;;;16.83;;
4365;SDS011;2196;47.422;9.656;2022-12-18T13:50:52;30.47;;;16.07;;
4365;SDS011;2196;47.422;9.656;2022-12-18T13:53:31;38.00;;;17.50;;
4365;SDS011;2196;47.422;9.656;2022-12-18T13:56:02;32.90;;;16.63;;
4365;SDS011;2196;47.422;9.656;2022-12-18T13:58:31;34.17;;;15.60;;
4365;SDS011;2196;47.422;9.656;2022-12-18T14:00:58;30.30;;;14.83;;
4365;SDS011;2196;47.422;9.656;2022-12-18T14:05:56;31.07;;;15.20;;
4365;SDS011;2196;47.422;9.656;2022-12-18T14:08:30;31.07;;;14.77;;
4365;SDS011;2196;47.422;9.656;2022-12-18T14:11:01;30.80;;;15.40;;
4365;SDS011;2196;47.422;9.656;2022-12-18T14:13:33;33.60;;;16.43;;
4365;SDS011;2196;47.422;9.656;2022-12-18T14:16:03;33.43;;;16.80;;
4365;SDS011;2196;47.422;9.656;2022-12-18T14:18:34;36.97;;;17.23;;
4365;SDS011;2196;47.422;9.656;2022-12-18T14:21:13;34.33;;;15.47;;
4365;SDS011;2196;47.422;9.656;2022-12-18T14:23:48;37.20;;;17.20;;
4365;SDS011;2196;47.422;9.656;2022-12-18T14:26:22;33.90;;;15.93;;
4365;SDS011;2196;47.422;9.656;2022-12-18T14:28:54;31.57;;;16.77;;
4365;SDS011;2196;47.422;9.656;2022-12-18T14:31:23;34.90;;;16.37;;
4365;SDS011;2196;47.422;9.656;2022-12-18T14:33:51;29.80;;;15.07;;
4365;SDS011;2196;47.422;9.656;2022-12-18T14:36:20;29.27;;;15.40;;
4365;SDS011;2196;47.422;9.656;2022-12-18T14:38:49;40.63;;;16.67;;
4365;SDS011;2196;47.422;9.656;2022-12-18T14:41:17;36.00;;;17.50;;
4365;SDS011;2196;47.422;9.656;2022-12-18T14:43:45;31.87;;;15.80;;
4365;SDS011;2196;47.422;9.656;2022-12-18T14:46:28;33.10;;;17.27;;
4365;SDS011;2196;47.422;9.656;2022-12-18T14:49:00;41.70;;;19.20;;
4365;SDS011;2196;47.422;9.656;2022-12-18T14:51:29;37.87;;;17.93;;
4365;SDS011;2196;47.422;9.656;2022-12-18T14:53:58;38.37;;;18.83;;
4365;SDS011;2196;47.422;9.656;2022-12-18T14:56:27;37.43;;;18.83;;
4365;SDS011;2196;47.422;9.656;2022-12-18T14:58:55;34.63;;;17.90;;
4365;SDS011;2196;47.422;9.656;2022-12-18T15:01:25;35.33;;;17.90;;
4365;SDS011;2196;47.422;9.656;2022-12-18T15:03:56;30.60;;;16.17;;
4365;SDS011;2196;47.422;9.656;2022-12-18T15:06:26;37.33;;;18.70;;
4365;SDS011;2196;47.422;9.656;2022-12-18T15:08:55;29.67;;;17.03;;
4365;SDS011;2196;47.422;9.656;2022-12-18T15:11:26;34.37;;;16.27;;
4365;SDS011;2196;47.422;9.656;2022-12-18T15:13:54;39.53;;;17.57;;
4365;SDS011;2196;47.422;9.656;2022-12-18T15:16:23;34.13;;;17.27;;
4365;SDS011;2196;47.422;9.656;2022-12-18T15:18:50;28.83;;;15.27;;
4365;SDS011;2196;47.422;9.656;2022-12-18T15:21:20;28.07;;;15.10;;
4365;SDS011;2196;47.422;9.656;2022-12-18T15:23:48;30.40;;;15.33;;
4365;SDS011;2196;47.422;9.656;2022-12-18T15:26:17;29.23;;;15.17;;
4365;SDS011;2196;47.422;9.656;2022-12-18T15:28:46;30.03;;;15.57;;